sensor_id;sensor_type;location;lat;lon;timestamp;temperature;humidity
32753;DHT22;19121;52.428;10.816;2024-03-08T00:00:13;19.50;40.90
32753;DHT22;19121;52.428;10.816;2024-03-08T00:02:39;19.50;40.90
32753;DHT22;19121;52.428;10.816;2024-03-08T00:05:05;19.50;40.90
32753;DHT22;19121;52.428;10.816;2024-03-08T00:07:31;19.50;40.90
32753;DHT22;19121;52.428;10.816;2024-03-08T00:09:56;19.40;40.80
32753;DHT22;19121;52.428;10.816;2024-03-08T00:12:22;19.50;40.90
32753;DHT22;19121;52.428;10.816;2024-03-08T00:14:47;19.40;40.90
32753;DHT22;19121;52.428;10.816;2024-03-08T00:17:12;19.50;40.80
32753;DHT22;19121;52.428;10.816;2024-03-08T00:19:38;19.50;40.80
32753;DHT22;19121;52.428;10.816;2024-03-08T00:22:06;19.50;40.80
32753;DHT22;19121;52.428;10.816;2024-03-08T00:24:33;19.50;40.80
32753;DHT22;19121;52.428;10.816;2024-03-08T00:26:58;19.50;40.80
32753;DHT22;19121;52.428;10.816;2024-03-08T00:29:24;19.50;40.80
32753;DHT22;19121;52.428;10.816;2024-03-08T00:31:49;19.50;40.80
32753;DHT22;19121;52.428;10.816;2024-03-08T00:34:15;19.50;40.80
32753;DHT22;19121;52.428;10.816;2024-03-08T00:36:40;19.50;40.80
32753;DHT22;19121;52.428;10.816;2024-03-08T00:39:05;19.60;40.90
32753;DHT22;19121;52.428;10.816;2024-03-08T00:41:32;19.50;40.80
32753;DHT22;19121;52.428;10.816;2024-03-08T00:43:57;19.50;40.80
32753;DHT22;19121;52.428;10.816;2024-03-08T00:46:23;19.50;40.80
32753;DHT22;19121;52.428;10.816;2024-03-08T00:48:49;19.50;40.80
32753;DHT22;19121;52.428;10.816;2024-03-08T00:51:14;19.50;40.80
32753;DHT22;19121;52.428;10.816;2024-03-08T00:53:42;19.50;40.80
32753;DHT22;19121;52.428;10.816;2024-03-08T00:56:08;19.50;40.70
32753;DHT22;19121;52.428;10.816;2024-03-08T00:58:37;19.40;40.70
32753;DHT22;19121;52.428;10.816;2024-03-08T01:01:02;19.50;40.70
32753;DHT22;19121;52.428;10.816;2024-03-08T01:03:28;19.40;40.70
32753;DHT22;19121;52.428;10.816;2024-03-08T01:05:57;19.40;40.70
32753;DHT22;19121;52.428;10.816;2024-03-08T01:08:22;19.40;40.70
32753;DHT22;19121;52.428;10.816;2024-03-08T01:10:48;19.40;40.70
32753;DHT22;19121;52.428;10.816;2024-03-08T01:13:15;19.40;40.70
32753;DHT22;19121;52.428;10.816;2024-03-08T01:15:41;19.40;40.70
32753;DHT22;19121;52.428;10.816;2024-03-08T01:18:07;19.40;40.70
32753;DHT22;19121;52.428;10.816;2024-03-08T01:20:32;19.40;40.70
32753;DHT22;19121;52.428;10.816;2024-03-08T01:22:57;19.40;40.60
32753;DHT22;19121;52.428;10.816;2024-03-08T01:25:23;19.40;40.60
32753;DHT22;19121;52.428;10.816;2024-03-08T01:27:48;19.40;40.60
32753;DHT22;19121;52.428;10.816;2024-03-08T01:30:14;19.40;40.60
32753;DHT22;19121;52.428;10.816;2024-03-08T01:32:42;19.40;40.60
32753;DHT22;19121;52.428;10.816;2024-03-08T01:35:09;19.40;40.60
32753;DHT22;19121;52.428;10.816;2024-03-08T01:37:34;19.40;40.60
32753;DHT22;19121;52.428;10.816;2024-03-08T01:40:00;19.40;40.60
32753;DHT22;19121;52.428;10.816;2024-03-08T01:42:25;19.40;41.20
32753;DHT22;19121;52.428;10.816;2024-03-08T01:44:51;19.40;40.60
32753;DHT22;19121;52.428;10.816;2024-03-08T01:47:17;19.40;40.50
32753;DHT22;19121;52.428;10.816;2024-03-08T01:49:43;19.40;40.50
32753;DHT22;19121;52.428;10.816;2024-03-08T01:52:09;19.40;40.50
32753;DHT22;19121;52.428;10.816;2024-03-08T01:54:34;19.40;40.50
32753;DHT22;19121;52.428;10.816;2024-03-08T01:57:00;19.40;40.60
32753;DHT22;19121;52.428;10.816;2024-03-08T01:59:26;19.40;40.60
32753;DHT22;19121;52.428;10.816;2024-03-08T02:01:53;19.40;40.50
32753;DHT22;19121;52.428;10.816;2024-03-08T02:04:20;19.40;40.60
32753;DHT22;19121;52.428;10.816;2024-03-08T02:06:46;19.30;40.40
32753;DHT22;19121;52.428;10.816;2024-03-08T02:09:13;19.40;40.50
32753;DHT22;19121;52.428;10.816;2024-03-08T02:11:40;19.30;40.40
32753;DHT22;19121;52.428;10.816;2024-03-08T02:14:05;19.30;40.40
32753;DHT22;19121;52.428;10.816;2024-03-08T02:16:31;19.30;40.40
32753;DHT22;19121;52.428;10.816;2024-03-08T02:18:56;19.30;40.40
32753;DHT22;19121;52.428;10.816;2024-03-08T02:21:22;19.30;40.40
32753;DHT22;19121;52.428;10.816;2024-03-08T02:23:47;19.40;40.50
32753;DHT22;19121;52.428;10.816;2024-03-08T02:26:13;19.30;40.40
32753;DHT22;19121;52.428;10.816;2024-03-08T02:28:38;19.30;40.40
32753;DHT22;19121;52.428;10.816;2024-03-08T02:31:04;19.30;40.40
32753;DHT22;19121;52.428;10.816;2024-03-08T02:33:33;19.30;40.40
32753;DHT22;19121;52.428;10.816;2024-03-08T02:35:59;19.30;40.40
32753;DHT22;19121;52.428;10.816;2024-03-08T02:38:24;19.30;40.40
32753;DHT22;19121;52.428;10.816;2024-03-08T02:40:50;19.30;40.40
32753;DHT22;19121;52.428;10.816;2024-03-08T02:43:16;19.30;40.40
32753;DHT22;19121;52.428;10.816;2024-03-08T02:45:43;19.30;40.30
32753;DHT22;19121;52.428;10.816;2024-03-08T02:48:09;19.30;40.30
32753;DHT22;19121;52.428;10.816;2024-03-08T02:50:35;19.30;40.30
32753;DHT22;19121;52.428;10.816;2024-03-08T02:53:01;19.30;40.30
32753;DHT22;19121;52.428;10.816;2024-03-08T02:55:27;19.30;40.30
32753;DHT22;19121;52.428;10.816;2024-03-08T02:57:52;19.30;40.30
32753;DHT22;19121;52.428;10.816;2024-03-08T03:00:20;19.30;40.30
32753;DHT22;19121;52.428;10.816;2024-03-08T03:02:46;19.30;40.30
32753;DHT22;19121;52.428;10.816;2024-03-08T03:05:12;19.30;40.30
32753;DHT22;19121;52.428;10.816;2024-03-08T03:07:38;19.30;40.30
32753;DHT22;19121;52.428;10.816;2024-03-08T03:10:04;19.30;40.20
32753;DHT22;19121;52.428;10.816;2024-03-08T03:12:30;19.30;40.20
32753;DHT22;19121;52.428;10.816;2024-03-08T03:14:59;19.30;40.20
32753;DHT22;19121;52.428;10.816;2024-03-08T03:17:24;19.30;40.20
32753;DHT22;19121;52.428;10.816;2024-03-08T03:19:50;19.30;40.20
32753;DHT22;19121;52.428;10.816;2024-03-08T03:22:17;19.30;40.20
32753;DHT22;19121;52.428;10.816;2024-03-08T03:24:43;19.30;40.10
32753;DHT22;19121;52.428;10.816;2024-03-08T03:27:09;19.30;40.80
32753;DHT22;19121;52.428;10.816;2024-03-08T03:29:38;19.30;40.10
32753;DHT22;19121;52.428;10.816;2024-03-08T03:32:05;19.30;40.20
32753;DHT22;19121;52.428;10.816;2024-03-08T03:34:30;19.40;40.30
32753;DHT22;19121;52.428;10.816;2024-03-08T03:36:56;19.30;40.20
32753;DHT22;19121;52.428;10.816;2024-03-08T03:39:21;19.40;40.80
32753;DHT22;19121;52.428;10.816;2024-03-08T03:41:48;19.40;40.20
32753;DHT22;19121;52.428;10.816;2024-03-08T03:44:16;19.30;40.10
32753;DHT22;19121;52.428;10.816;2024-03-08T03:46:42;19.40;40.20
32753;DHT22;19121;52.428;10.816;2024-03-08T03:49:10;19.40;40.10
32753;DHT22;19121;52.428;10.816;2024-03-08T03:51:36;19.40;40.20
32753;DHT22;19121;52.428;10.816;2024-03-08T03:54:01;19.40;40.10
32753;DHT22;19121;52.428;10.816;2024-03-08T03:56:29;19.40;40.10
32753;DHT22;19121;52.428;10.816;2024-03-08T03:58:55;19.40;40.10
32753;DHT22;19121;52.428;10.816;2024-03-08T04:01:21;19.40;40.10
32753;DHT22;19121;52.428;10.816;2024-03-08T04:03:47;19.40;40.10
32753;DHT22;19121;52.428;10.816;2024-03-08T04:06:12;19.40;40.10
32753;DHT22;19121;52.428;10.816;2024-03-08T04:08:38;19.40;40.10
32753;DHT22;19121;52.428;10.816;2024-03-08T04:11:03;19.40;40.10
32753;DHT22;19121;52.428;10.816;2024-03-08T04:13:29;19.40;40.00
32753;DHT22;19121;52.428;10.816;2024-03-08T04:15:54;19.40;40.00
32753;DHT22;19121;52.428;10.816;2024-03-08T04:18:20;19.40;40.00
32753;DHT22;19121;52.428;10.816;2024-03-08T04:20:45;19.40;40.00
32753;DHT22;19121;52.428;10.816;2024-03-08T04:23:11;19.50;40.00
32753;DHT22;19121;52.428;10.816;2024-03-08T04:25:36;19.50;40.00
32753;DHT22;19121;52.428;10.816;2024-03-08T04:28:02;19.50;40.00
32753;DHT22;19121;52.428;10.816;2024-03-08T04:30:27;19.50;40.00
32753;DHT22;19121;52.428;10.816;2024-03-08T04:32:53;19.50;40.00
32753;DHT22;19121;52.428;10.816;2024-03-08T04:35:19;19.50;39.90
32753;DHT22;19121;52.428;10.816;2024-03-08T04:37:45;19.50;39.90
32753;DHT22;19121;52.428;10.816;2024-03-08T04:40:11;19.40;39.90
32753;DHT22;19121;52.428;10.816;2024-03-08T04:42:37;19.50;40.00
32753;DHT22;19121;52.428;10.816;2024-03-08T04:45:03;19.40;39.90
32753;DHT22;19121;52.428;10.816;2024-03-08T04:47:29;19.50;39.90
32753;DHT22;19121;52.428;10.816;2024-03-08T04:49:54;19.40;39.80
32753;DHT22;19121;52.428;10.816;2024-03-08T04:52:21;19.50;39.90
32753;DHT22;19121;52.428;10.816;2024-03-08T04:54:47;19.50;39.90
32753;DHT22;19121;52.428;10.816;2024-03-08T04:57:12;19.40;39.80
32753;DHT22;19121;52.428;10.816;2024-03-08T04:59:38;19.50;39.80
32753;DHT22;19121;52.428;10.816;2024-03-08T05:02:03;19.40;39.80
32753;DHT22;19121;52.428;10.816;2024-03-08T05:04:29;19.40;39.80
32753;DHT22;19121;52.428;10.816;2024-03-08T05:06:55;19.50;39.80
32753;DHT22;19121;52.428;10.816;2024-03-08T05:09:20;19.50;39.70
32753;DHT22;19121;52.428;10.816;2024-03-08T05:11:46;19.50;39.70
32753;DHT22;19121;52.428;10.816;2024-03-08T05:14:12;19.40;39.70
32753;DHT22;19121;52.428;10.816;2024-03-08T05:16:44;19.40;39.70
32753;DHT22;19121;52.428;10.816;2024-03-08T05:19:16;19.50;39.70
32753;DHT22;19121;52.428;10.816;2024-03-08T05:21:45;19.50;39.70
32753;DHT22;19121;52.428;10.816;2024-03-08T05:24:10;19.40;39.60
32753;DHT22;19121;52.428;10.816;2024-03-08T05:26:36;19.50;39.70
32753;DHT22;19121;52.428;10.816;2024-03-08T05:29:02;19.50;39.60
32753;DHT22;19121;52.428;10.816;2024-03-08T05:31:28;19.50;39.60
32753;DHT22;19121;52.428;10.816;2024-03-08T05:33:54;19.50;39.60
32753;DHT22;19121;52.428;10.816;2024-03-08T05:36:20;19.50;39.50
32753;DHT22;19121;52.428;10.816;2024-03-08T05:38:46;19.50;39.60
32753;DHT22;19121;52.428;10.816;2024-03-08T05:41:12;19.50;39.50
32753;DHT22;19121;52.428;10.816;2024-03-08T05:43:37;19.50;39.50
32753;DHT22;19121;52.428;10.816;2024-03-08T05:46:04;19.50;39.50
32753;DHT22;19121;52.428;10.816;2024-03-08T05:48:30;19.50;39.50
32753;DHT22;19121;52.428;10.816;2024-03-08T05:50:57;19.50;39.50
32753;DHT22;19121;52.428;10.816;2024-03-08T05:53:22;19.40;39.40
32753;DHT22;19121;52.428;10.816;2024-03-08T05:55:48;19.40;39.40
32753;DHT22;19121;52.428;10.816;2024-03-08T05:58:14;19.40;39.40
32753;DHT22;19121;52.428;10.816;2024-03-08T06:00:40;19.50;39.40
32753;DHT22;19121;52.428;10.816;2024-03-08T06:03:05;19.50;39.40
32753;DHT22;19121;52.428;10.816;2024-03-08T06:05:31;19.40;39.40
32753;DHT22;19121;52.428;10.816;2024-03-08T06:07:56;19.40;39.30
32753;DHT22;19121;52.428;10.816;2024-03-08T06:10:22;19.50;39.40
32753;DHT22;19121;52.428;10.816;2024-03-08T06:12:47;19.50;39.30
32753;DHT22;19121;52.428;10.816;2024-03-08T06:15:13;19.50;39.30
32753;DHT22;19121;52.428;10.816;2024-03-08T06:17:41;19.40;39.20
32753;DHT22;19121;52.428;10.816;2024-03-08T06:20:07;19.40;39.20
32753;DHT22;19121;52.428;10.816;2024-03-08T06:22:38;19.50;39.30
32753;DHT22;19121;52.428;10.816;2024-03-08T06:25:09;19.50;39.20
32753;DHT22;19121;52.428;10.816;2024-03-08T06:27:36;19.50;39.20
32753;DHT22;19121;52.428;10.816;2024-03-08T06:30:02;19.50;39.10
32753;DHT22;19121;52.428;10.816;2024-03-08T06:32:30;19.50;39.10
32753;DHT22;19121;52.428;10.816;2024-03-08T06:34:55;19.50;39.10
32753;DHT22;19121;52.428;10.816;2024-03-08T06:37:21;19.50;39.10
32753;DHT22;19121;52.428;10.816;2024-03-08T06:39:50;19.50;39.00
32753;DHT22;19121;52.428;10.816;2024-03-08T06:42:16;19.50;39.00
32753;DHT22;19121;52.428;10.816;2024-03-08T06:44:42;19.50;39.00
32753;DHT22;19121;52.428;10.816;2024-03-08T06:47:14;19.50;39.00
32753;DHT22;19121;52.428;10.816;2024-03-08T06:49:40;19.50;39.10
32753;DHT22;19121;52.428;10.816;2024-03-08T06:52:06;19.60;39.10
32753;DHT22;19121;52.428;10.816;2024-03-08T06:54:34;19.60;39.10
32753;DHT22;19121;52.428;10.816;2024-03-08T06:57:01;19.60;39.10
32753;DHT22;19121;52.428;10.816;2024-03-08T06:59:28;19.60;39.10
32753;DHT22;19121;52.428;10.816;2024-03-08T07:01:54;19.60;39.10
32753;DHT22;19121;52.428;10.816;2024-03-08T07:04:19;19.60;39.10
32753;DHT22;19121;52.428;10.816;2024-03-08T07:06:47;19.70;39.10
32753;DHT22;19121;52.428;10.816;2024-03-08T07:09:15;19.70;39.10
32753;DHT22;19121;52.428;10.816;2024-03-08T07:11:42;19.70;39.00
32753;DHT22;19121;52.428;10.816;2024-03-08T07:14:07;19.70;39.00
32753;DHT22;19121;52.428;10.816;2024-03-08T07:16:34;19.80;39.00
32753;DHT22;19121;52.428;10.816;2024-03-08T07:19:01;19.80;38.90
32753;DHT22;19121;52.428;10.816;2024-03-08T07:21:26;19.80;38.90
32753;DHT22;19121;52.428;10.816;2024-03-08T07:23:52;19.90;39.00
32753;DHT22;19121;52.428;10.816;2024-03-08T07:26:26;19.90;38.90
32753;DHT22;19121;52.428;10.816;2024-03-08T07:28:52;19.80;38.80
32753;DHT22;19121;52.428;10.816;2024-03-08T07:31:20;19.90;38.90
32753;DHT22;19121;52.428;10.816;2024-03-08T07:34:00;19.90;38.90
32753;DHT22;19121;52.428;10.816;2024-03-08T07:36:25;19.90;38.90
32753;DHT22;19121;52.428;10.816;2024-03-08T07:38:51;19.90;38.90
32753;DHT22;19121;52.428;10.816;2024-03-08T07:41:19;20.00;39.00
32753;DHT22;19121;52.428;10.816;2024-03-08T07:43:45;20.00;39.00
32753;DHT22;19121;52.428;10.816;2024-03-08T07:46:11;20.00;39.10
32753;DHT22;19121;52.428;10.816;2024-03-08T07:48:37;20.00;39.20
32753;DHT22;19121;52.428;10.816;2024-03-08T07:51:02;20.00;39.20
32753;DHT22;19121;52.428;10.816;2024-03-08T07:53:31;20.00;39.30
32753;DHT22;19121;52.428;10.816;2024-03-08T07:55:56;20.00;39.20
32753;DHT22;19121;52.428;10.816;2024-03-08T07:58:21;19.90;39.20
32753;DHT22;19121;52.428;10.816;2024-03-08T08:00:48;20.00;39.30
32753;DHT22;19121;52.428;10.816;2024-03-08T08:03:14;20.00;39.30
32753;DHT22;19121;52.428;10.816;2024-03-08T08:05:39;20.10;39.40
32753;DHT22;19121;52.428;10.816;2024-03-08T08:08:05;20.10;39.30
32753;DHT22;19121;52.428;10.816;2024-03-08T08:10:34;20.10;39.20
32753;DHT22;19121;52.428;10.816;2024-03-08T08:12:59;20.10;39.30
32753;DHT22;19121;52.428;10.816;2024-03-08T08:15:25;20.10;39.20
32753;DHT22;19121;52.428;10.816;2024-03-08T08:17:50;20.20;39.10
32753;DHT22;19121;52.428;10.816;2024-03-08T08:20:17;20.10;38.90
32753;DHT22;19121;52.428;10.816;2024-03-08T08:22:43;20.20;39.00
32753;DHT22;19121;52.428;10.816;2024-03-08T08:25:09;20.20;38.80
32753;DHT22;19121;52.428;10.816;2024-03-08T08:27:38;20.30;38.80
32753;DHT22;19121;52.428;10.816;2024-03-08T08:30:05;20.30;38.80
32753;DHT22;19121;52.428;10.816;2024-03-08T08:32:36;20.30;38.80
32753;DHT22;19121;52.428;10.816;2024-03-08T08:35:05;20.30;38.80
32753;DHT22;19121;52.428;10.816;2024-03-08T08:37:31;20.30;38.90
32753;DHT22;19121;52.428;10.816;2024-03-08T08:39:57;20.30;39.00
32753;DHT22;19121;52.428;10.816;2024-03-08T08:42:23;20.40;38.90
32753;DHT22;19121;52.428;10.816;2024-03-08T08:44:48;20.40;38.80
32753;DHT22;19121;52.428;10.816;2024-03-08T08:47:16;20.40;38.70
32753;DHT22;19121;52.428;10.816;2024-03-08T08:49:44;20.40;38.60
32753;DHT22;19121;52.428;10.816;2024-03-08T08:52:09;20.40;38.50
32753;DHT22;19121;52.428;10.816;2024-03-08T08:54:35;20.40;38.50
32753;DHT22;19121;52.428;10.816;2024-03-08T08:57:01;20.50;38.60
32753;DHT22;19121;52.428;10.816;2024-03-08T08:59:33;20.40;38.60
32753;DHT22;19121;52.428;10.816;2024-03-08T09:01:58;20.50;38.70
32753;DHT22;19121;52.428;10.816;2024-03-08T09:04:24;20.50;38.50
32753;DHT22;19121;52.428;10.816;2024-03-08T09:06:49;20.50;38.60
32753;DHT22;19121;52.428;10.816;2024-03-08T09:09:15;20.50;38.50
32753;DHT22;19121;52.428;10.816;2024-03-08T09:11:42;20.50;38.50
32753;DHT22;19121;52.428;10.816;2024-03-08T09:14:07;20.50;38.50
32753;DHT22;19121;52.428;10.816;2024-03-08T09:16:34;20.50;38.60
32753;DHT22;19121;52.428;10.816;2024-03-08T09:18:59;20.60;38.60
32753;DHT22;19121;52.428;10.816;2024-03-08T09:21:25;20.50;38.50
32753;DHT22;19121;52.428;10.816;2024-03-08T09:23:51;20.60;38.50
32753;DHT22;19121;52.428;10.816;2024-03-08T09:26:17;20.60;38.60
32753;DHT22;19121;52.428;10.816;2024-03-08T09:28:42;20.60;38.60
32753;DHT22;19121;52.428;10.816;2024-03-08T09:31:08;20.60;38.50
32753;DHT22;19121;52.428;10.816;2024-03-08T09:33:36;20.60;38.60
32753;DHT22;19121;52.428;10.816;2024-03-08T09:36:01;20.60;38.60
32753;DHT22;19121;52.428;10.816;2024-03-08T09:38:28;20.60;38.60
32753;DHT22;19121;52.428;10.816;2024-03-08T09:40:54;20.70;38.60
32753;DHT22;19121;52.428;10.816;2024-03-08T09:43:22;20.60;38.60
32753;DHT22;19121;52.428;10.816;2024-03-08T09:45:49;20.70;38.60
32753;DHT22;19121;52.428;10.816;2024-03-08T09:48:14;20.70;38.60
32753;DHT22;19121;52.428;10.816;2024-03-08T09:50:42;20.70;38.60
32753;DHT22;19121;52.428;10.816;2024-03-08T09:53:07;20.70;38.60
32753;DHT22;19121;52.428;10.816;2024-03-08T09:55:36;20.70;38.60
32753;DHT22;19121;52.428;10.816;2024-03-08T09:58:02;20.70;38.60
32753;DHT22;19121;52.428;10.816;2024-03-08T10:00:49;20.70;38.60
32753;DHT22;19121;52.428;10.816;2024-03-08T10:03:14;20.70;38.60
32753;DHT22;19121;52.428;10.816;2024-03-08T10:05:43;20.70;38.60
32753;DHT22;19121;52.428;10.816;2024-03-08T10:08:09;20.70;38.50
32753;DHT22;19121;52.428;10.816;2024-03-08T10:10:36;20.60;38.60
32753;DHT22;19121;52.428;10.816;2024-03-08T10:13:06;20.60;38.60
32753;DHT22;19121;52.428;10.816;2024-03-08T10:15:31;20.60;38.60
32753;DHT22;19121;52.428;10.816;2024-03-08T10:18:00;20.60;38.60
32753;DHT22;19121;52.428;10.816;2024-03-08T10:20:27;20.60;38.60
32753;DHT22;19121;52.428;10.816;2024-03-08T10:22:53;20.60;38.70
32753;DHT22;19121;52.428;10.816;2024-03-08T10:25:19;20.60;38.70
32753;DHT22;19121;52.428;10.816;2024-03-08T10:27:44;20.60;38.60
32753;DHT22;19121;52.428;10.816;2024-03-08T10:30:11;20.60;38.70
32753;DHT22;19121;52.428;10.816;2024-03-08T10:32:38;20.70;38.70
32753;DHT22;19121;52.428;10.816;2024-03-08T10:35:04;20.60;38.70
32753;DHT22;19121;52.428;10.816;2024-03-08T10:37:29;20.70;38.70
32753;DHT22;19121;52.428;10.816;2024-03-08T10:40:02;20.70;38.80
32753;DHT22;19121;52.428;10.816;2024-03-08T10:42:35;20.60;38.70
32753;DHT22;19121;52.428;10.816;2024-03-08T10:45:11;20.70;38.80
32753;DHT22;19121;52.428;10.816;2024-03-08T10:47:40;20.70;38.70
32753;DHT22;19121;52.428;10.816;2024-03-08T10:50:18;20.70;38.70
32753;DHT22;19121;52.428;10.816;2024-03-08T10:52:48;20.70;38.70
32753;DHT22;19121;52.428;10.816;2024-03-08T10:55:14;20.70;38.70
32753;DHT22;19121;52.428;10.816;2024-03-08T10:57:41;20.70;38.80
32753;DHT22;19121;52.428;10.816;2024-03-08T11:00:07;20.70;38.80
32753;DHT22;19121;52.428;10.816;2024-03-08T11:02:36;20.70;38.80
32753;DHT22;19121;52.428;10.816;2024-03-08T11:05:03;20.80;38.90
32753;DHT22;19121;52.428;10.816;2024-03-08T11:07:33;20.80;38.90
32753;DHT22;19121;52.428;10.816;2024-03-08T11:09:59;20.70;38.80
32753;DHT22;19121;52.428;10.816;2024-03-08T11:12:29;20.80;38.90
32753;DHT22;19121;52.428;10.816;2024-03-08T11:15:10;20.80;38.90
32753;DHT22;19121;52.428;10.816;2024-03-08T11:20:11;20.80;39.00
32753;DHT22;19121;52.428;10.816;2024-03-08T11:22:53;20.80;39.10
32753;DHT22;19121;52.428;10.816;2024-03-08T11:30:45;20.80;39.20
32753;DHT22;19121;52.428;10.816;2024-03-08T11:33:16;20.80;39.20
32753;DHT22;19121;52.428;10.816;2024-03-08T11:35:41;20.70;39.10
32753;DHT22;19121;52.428;10.816;2024-03-08T11:38:08;20.80;39.20
32753;DHT22;19121;52.428;10.816;2024-03-08T11:40:35;20.80;39.30
32753;DHT22;19121;52.428;10.816;2024-03-08T11:43:00;20.70;39.20
32753;DHT22;19121;52.428;10.816;2024-03-08T11:45:29;20.80;39.30
32753;DHT22;19121;52.428;10.816;2024-03-08T11:47:55;20.80;39.40
32753;DHT22;19121;52.428;10.816;2024-03-08T11:50:20;20.70;39.30
32753;DHT22;19121;52.428;10.816;2024-03-08T11:52:50;20.80;39.30
32753;DHT22;19121;52.428;10.816;2024-03-08T11:55:15;20.80;39.30
32753;DHT22;19121;52.428;10.816;2024-03-08T11:57:41;20.70;39.20
32753;DHT22;19121;52.428;10.816;2024-03-08T12:00:14;20.80;39.40
32753;DHT22;19121;52.428;10.816;2024-03-08T12:02:46;20.80;39.40
32753;DHT22;19121;52.428;10.816;2024-03-08T12:05:16;20.70;39.40
32753;DHT22;19121;52.428;10.816;2024-03-08T12:07:41;20.70;39.50
32753;DHT22;19121;52.428;10.816;2024-03-08T12:10:15;20.80;39.50
32753;DHT22;19121;52.428;10.816;2024-03-08T12:12:44;20.70;39.50
32753;DHT22;19121;52.428;10.816;2024-03-08T12:15:09;20.80;39.60
32753;DHT22;19121;52.428;10.816;2024-03-08T12:17:37;20.80;39.60
32753;DHT22;19121;52.428;10.816;2024-03-08T12:20:16;20.70;39.60
32753;DHT22;19121;52.428;10.816;2024-03-08T12:22:45;20.70;39.70
32753;DHT22;19121;52.428;10.816;2024-03-08T12:25:11;20.70;39.70
32753;DHT22;19121;52.428;10.816;2024-03-08T12:27:41;20.70;39.70
32753;DHT22;19121;52.428;10.816;2024-03-08T12:32:46;20.80;39.60
32753;DHT22;19121;52.428;10.816;2024-03-08T12:35:11;20.70;39.60
32753;DHT22;19121;52.428;10.816;2024-03-08T12:37:37;20.70;39.70
32753;DHT22;19121;52.428;10.816;2024-03-08T12:40:06;20.70;39.70
32753;DHT22;19121;52.428;10.816;2024-03-08T12:42:32;20.70;39.60
32753;DHT22;19121;52.428;10.816;2024-03-08T12:44:57;20.70;39.50
32753;DHT22;19121;52.428;10.816;2024-03-08T12:47:24;20.70;39.50
32753;DHT22;19121;52.428;10.816;2024-03-08T12:49:50;20.70;39.50
32753;DHT22;19121;52.428;10.816;2024-03-08T12:52:15;20.80;39.60
32753;DHT22;19121;52.428;10.816;2024-03-08T12:54:43;20.80;39.70
32753;DHT22;19121;52.428;10.816;2024-03-08T12:57:09;20.70;39.60
32753;DHT22;19121;52.428;10.816;2024-03-08T12:59:34;20.80;39.70
32753;DHT22;19121;52.428;10.816;2024-03-08T13:02:00;20.80;39.70
32753;DHT22;19121;52.428;10.816;2024-03-08T13:04:25;20.80;39.70
32753;DHT22;19121;52.428;10.816;2024-03-08T13:06:51;20.80;40.30
32753;DHT22;19121;52.428;10.816;2024-03-08T13:09:16;20.70;39.70
32753;DHT22;19121;52.428;10.816;2024-03-08T13:11:44;20.70;39.70
32753;DHT22;19121;52.428;10.816;2024-03-08T13:14:10;20.80;39.70
32753;DHT22;19121;52.428;10.816;2024-03-08T13:16:35;20.70;39.70
32753;DHT22;19121;52.428;10.816;2024-03-08T13:19:01;20.80;39.80
32753;DHT22;19121;52.428;10.816;2024-03-08T13:21:26;20.70;39.70
32753;DHT22;19121;52.428;10.816;2024-03-08T13:23:52;20.70;39.60
32753;DHT22;19121;52.428;10.816;2024-03-08T13:26:18;20.70;39.60
32753;DHT22;19121;52.428;10.816;2024-03-08T13:28:50;20.70;39.40
32753;DHT22;19121;52.428;10.816;2024-03-08T13:31:21;20.70;39.30
32753;DHT22;19121;52.428;10.816;2024-03-08T13:33:46;20.60;39.10
32753;DHT22;19121;52.428;10.816;2024-03-08T13:36:12;20.60;39.10
32753;DHT22;19121;52.428;10.816;2024-03-08T13:38:45;20.60;38.90
32753;DHT22;19121;52.428;10.816;2024-03-08T13:41:10;20.60;38.70
32753;DHT22;19121;52.428;10.816;2024-03-08T13:43:37;20.50;38.60
32753;DHT22;19121;52.428;10.816;2024-03-08T13:46:03;20.50;38.50
32753;DHT22;19121;52.428;10.816;2024-03-08T13:48:28;20.50;38.30
32753;DHT22;19121;52.428;10.816;2024-03-08T13:50:54;20.50;38.10
32753;DHT22;19121;52.428;10.816;2024-03-08T13:53:20;20.50;38.00
32753;DHT22;19121;52.428;10.816;2024-03-08T13:55:46;20.40;38.00
32753;DHT22;19121;52.428;10.816;2024-03-08T13:58:11;20.40;37.90
32753;DHT22;19121;52.428;10.816;2024-03-08T14:00:39;20.40;37.80
32753;DHT22;19121;52.428;10.816;2024-03-08T14:03:06;20.40;37.80
32753;DHT22;19121;52.428;10.816;2024-03-08T14:05:32;20.40;37.70
32753;DHT22;19121;52.428;10.816;2024-03-08T14:08:01;20.40;37.60
32753;DHT22;19121;52.428;10.816;2024-03-08T14:10:29;20.40;37.40
32753;DHT22;19121;52.428;10.816;2024-03-08T14:12:59;20.40;37.00
32753;DHT22;19121;52.428;10.816;2024-03-08T14:15:25;20.40;36.90
32753;DHT22;19121;52.428;10.816;2024-03-08T14:17:53;20.40;36.90
32753;DHT22;19121;52.428;10.816;2024-03-08T14:20:19;20.40;36.90
32753;DHT22;19121;52.428;10.816;2024-03-08T14:22:44;20.40;37.00
32753;DHT22;19121;52.428;10.816;2024-03-08T14:25:11;20.40;37.00
32753;DHT22;19121;52.428;10.816;2024-03-08T14:27:43;20.50;37.00
32753;DHT22;19121;52.428;10.816;2024-03-08T14:30:09;20.40;37.00
32753;DHT22;19121;52.428;10.816;2024-03-08T14:32:35;20.50;37.00
32753;DHT22;19121;52.428;10.816;2024-03-08T14:35:04;20.50;37.00
32753;DHT22;19121;52.428;10.816;2024-03-08T14:37:29;20.40;37.10
32753;DHT22;19121;52.428;10.816;2024-03-08T14:39:55;20.40;37.10
32753;DHT22;19121;52.428;10.816;2024-03-08T14:42:21;20.50;37.10
32753;DHT22;19121;52.428;10.816;2024-03-08T14:44:48;20.50;37.20
32753;DHT22;19121;52.428;10.816;2024-03-08T14:47:16;20.50;37.20
32753;DHT22;19121;52.428;10.816;2024-03-08T14:49:42;20.50;37.20
32753;DHT22;19121;52.428;10.816;2024-03-08T14:52:07;20.50;37.20
32753;DHT22;19121;52.428;10.816;2024-03-08T14:54:55;20.40;37.20
32753;DHT22;19121;52.428;10.816;2024-03-08T14:57:21;20.50;37.30
32753;DHT22;19121;52.428;10.816;2024-03-08T14:59:46;20.50;37.30
32753;DHT22;19121;52.428;10.816;2024-03-08T15:02:12;20.40;37.20
32753;DHT22;19121;52.428;10.816;2024-03-08T15:04:37;20.50;37.20
32753;DHT22;19121;52.428;10.816;2024-03-08T15:07:06;20.40;37.30
32753;DHT22;19121;52.428;10.816;2024-03-08T15:09:35;20.50;37.40
32753;DHT22;19121;52.428;10.816;2024-03-08T15:12:08;20.40;37.30
32753;DHT22;19121;52.428;10.816;2024-03-08T15:14:34;20.40;37.40
32753;DHT22;19121;52.428;10.816;2024-03-08T15:17:04;20.40;37.40
32753;DHT22;19121;52.428;10.816;2024-03-08T15:19:36;20.50;37.40
32753;DHT22;19121;52.428;10.816;2024-03-08T15:22:01;20.40;37.40